Time;durP1;ratioP1;P1;durP2;ratioP2;P2;SDS_P1;SDS_P2;PMS_P1;PMS_P2;Temp;Humidity;BMP_temperature;BMP_pressure;BME280_temperature;BME280_humidity;BME280_pressure;Samples;Min_cycle;Max_cycle;Signal;HPM_P1;HPM_P2
2023/03/02 00:00:58;;;;;;;4.93;1.80;;;;;;;-1.19;69.84;98725.59;5065937;28;20067;-36
2023/03/02 00:03:24;;;;;;;4.93;1.20;;;;;;;-1.34;69.55;98703.56;5064329;28;20044;-35
2023/03/02 00:05:50;;;;;;;2.33;1.20;;;;;;;-1.33;69.59;98696.75;5067029;28;20147;-36
2023/03/02 00:08:17;;;;;;;4.03;1.10;;;;;;;-1.14;69.56;98735.78;5064799;28;20102;-35
2023/03/02 00:10:43;;;;;;;1.48;1.10;;;;;;;-1.28;69.52;98697.59;5049007;28;20091;-36
2023/03/02 00:13:10;;;;;;;3.92;0.90;;;;;;;-1.09;69.73;98727.25;5081331;28;20048;-36
2023/03/02 00:15:36;;;;;;;2.53;1.08;;;;;;;-1.08;69.36;98720.47;5063445;28;20519;-35
2023/03/02 00:18:01;;;;;;;1.40;0.63;;;;;;;-1.08;69.20;98728.97;5067960;28;20047;-36
2023/03/02 00:20:27;;;;;;;2.75;1.10;;;;;;;-1.05;69.46;98736.63;5067917;28;20112;-36
2023/03/02 00:22:53;;;;;;;1.90;0.70;;;;;;;-1.18;69.07;98696.72;5065366;28;20055;-36
2023/03/02 00:25:19;;;;;;;2.47;0.90;;;;;;;-0.96;68.94;98741.69;5060001;28;20094;-35
2023/03/02 00:27:45;;;;;;;3.47;1.17;;;;;;;-0.93;68.81;98740.81;5055483;28;20043;-37
2023/03/02 00:30:12;;;;;;;4.63;1.25;;;;;;;-0.87;68.57;98744.19;5058735;28;20040;-35
2023/03/02 00:32:38;;;;;;;3.47;0.98;;;;;;;-0.81;68.53;98745.03;5065634;28;20033;-36
2023/03/02 00:35:05;;;;;;;6.22;1.25;;;;;;;-0.99;68.12;98711.06;5044304;28;20045;-36
2023/03/02 00:37:31;;;;;;;3.83;0.98;;;;;;;-0.76;68.01;98756.06;5065934;28;20127;-35
2023/03/02 00:39:57;;;;;;;0.85;0.68;;;;;;;-0.81;67.26;98748.44;5067225;28;20515;-36
2023/03/02 00:42:23;;;;;;;5.90;1.35;;;;;;;-0.91;66.94;98759.53;5049916;28;20032;-35
2023/03/02 00:44:51;;;;;;;2.58;1.05;;;;;;;-1.11;66.87;98763.84;5065303;28;20075;-37
2023/03/02 00:47:17;;;;;;;7.18;2.33;;;;;;;-1.32;66.75;98764.75;5066606;28;20071;-37
2023/03/02 00:49:47;;;;;;;2.20;1.00;;;;;;;-1.53;66.70;98768.16;5049643;28;20041;-35
2023/03/02 00:52:14;;;;;;;3.67;1.27;;;;;;;-1.68;66.90;98769.88;5033981;28;20032;-35
2023/03/02 00:54:40;;;;;;;3.42;0.80;;;;;;;-1.84;67.09;98752.06;5065351;28;20044;-35
2023/03/02 00:57:06;;;;;;;1.85;0.80;;;;;;;-1.90;67.06;98762.22;5066324;28;20056;-35
2023/03/02 00:59:32;;;;;;;3.10;1.08;;;;;;;-1.88;67.13;98769.84;5067571;28;20044;-35
2023/03/02 01:02:12;;;;;;;2.72;1.00;;;;;;;-1.86;66.89;98766.47;5065669;28;20066;-34
2023/03/02 01:04:40;;;;;;;2.03;1.08;;;;;;;-1.77;67.11;98761.38;5066213;28;20036;-35
2023/03/02 01:07:09;;;;;;;2.20;1.02;;;;;;;-1.72;66.94;98762.22;5064806;28;20036;-34
2023/03/02 01:09:36;;;;;;;3.15;1.10;;;;;;;-1.73;66.56;98768.16;5055232;28;21119;-35
2023/03/02 01:12:04;;;;;;;1.90;0.90;;;;;;;-1.66;66.46;98775.81;5065072;28;20049;-35
2023/03/02 01:14:30;;;;;;;4.00;1.05;;;;;;;-1.69;66.46;98756.28;5064323;28;20392;-36
2023/03/02 01:16:56;;;;;;;3.67;1.08;;;;;;;-1.50;65.98;98780.03;5066808;28;20645;-35
2023/03/02 01:19:22;;;;;;;2.60;1.10;;;;;;;-1.67;65.46;98746.91;5024496;28;20072;-35
2023/03/02 01:21:48;;;;;;;2.05;0.90;;;;;;;-1.63;65.82;98773.28;5076932;28;20512;-34
2023/03/02 01:24:14;;;;;;;3.65;1.15;;;;;;;-1.77;65.93;98775.81;5067962;28;20048;-35
2023/03/02 01:26:40;;;;;;;3.30;1.17;;;;;;;-1.92;65.91;98778.34;5069695;28;20098;-34
2023/03/02 01:29:06;;;;;;;3.35;1.02;;;;;;;-2.05;66.19;98785.16;5069806;28;20559;-35
2023/03/02 01:31:32;;;;;;;4.13;1.20;;;;;;;-2.13;66.19;98772.38;5068921;28;20036;-36
2023/03/02 01:33:58;;;;;;;2.30;1.00;;;;;;;-2.17;66.39;98770.69;5063284;28;20047;-35
2023/03/02 01:36:24;;;;;;;2.47;0.90;;;;;;;-2.37;66.43;98731.63;5069174;28;20578;-35
2023/03/02 01:38:50;;;;;;;3.80;1.10;;;;;;;-2.28;66.64;98772.38;5069498;28;20036;-36
2023/03/02 01:41:16;;;;;;;2.95;1.10;;;;;;;-2.31;67.08;98794.44;5070784;28;20037;-35
2023/03/02 01:43:42;;;;;;;4.28;1.90;;;;;;;-2.25;66.97;98792.72;5068849;28;20234;-36
2023/03/02 01:46:34;;;;;;;3.53;1.10;;;;;;;-2.10;67.05;98797.03;5070929;28;20163;-35
2023/03/02 01:49:01;;;;;;;3.25;1.00;;;;;;;-1.93;66.75;98797.03;5053397;28;20044;-34
2023/03/02 01:51:44;;;;;;;3.42;1.23;;;;;;;-1.79;66.50;98801.31;5054848;28;20557;-36
2023/03/02 01:54:16;;;;;;;3.58;1.38;;;;;;;-1.69;66.25;98801.28;5050369;28;20045;-36
2023/03/02 01:56:43;;;;;;;3.13;1.40;;;;;;;-1.61;66.10;98802.97;5035818;28;20178;-36
2023/03/02 01:59:13;;;;;;;2.55;1.05;;;;;;;-1.67;66.05;98789.41;5069368;28;20152;-36
2023/03/02 02:01:42;;;;;;;4.68;1.05;;;;;;;-1.50;65.64;98805.53;5052854;28;20064;-35
2023/03/02 02:04:08;;;;;;;2.33;1.00;;;;;;;-1.44;65.54;98806.38;5052106;28;20051;-36
2023/03/02 02:06:38;;;;;;;4.25;1.20;;;;;;;-1.43;65.36;98803.00;5052193;28;20500;-35
2023/03/02 02:09:04;;;;;;;;;;;;;;;-1.37;65.04;98795.34;5070940;28;20045;-36
2023/03/02 02:11:30;;;;;;;4.50;1.70;;;;;;;-1.52;65.00;98767.31;5068490;28;19920;-36
2023/03/02 02:13:58;;;;;;;1.77;1.02;;;;;;;-1.32;64.64;98797.88;5085729;28;20041;-36
2023/03/02 02:16:29;;;;;;;4.25;1.10;;;;;;;-1.32;64.42;98801.28;5018261;28;20047;-36
2023/03/02 02:18:55;;;;;;;2.20;0.98;;;;;;;-1.29;64.39;98803.81;5070766;28;20519;-36
2023/03/02 02:21:21;;;;;;;2.80;1.20;;;;;;;-1.23;64.30;98797.84;5050450;28;20060;-35
2023/03/02 02:24:11;;;;;;;1.70;1.00;;;;;;;-1.19;64.32;98799.53;5050758;28;20087;-35
2023/03/02 02:26:56;;;;;;;5.20;1.55;;;;;;;-1.18;63.83;98796.16;5058529;28;20073;-37
2023/03/02 02:29:37;;;;;;;2.40;1.08;;;;;;;-1.15;63.80;98800.41;5071639;28;20040;-35
2023/03/02 02:32:16;;;;;;;3.05;1.27;;;;;;;-1.13;63.63;98807.19;5078314;28;20029;-36
2023/03/02 02:35:08;;;;;;;4.03;1.17;;;;;;;-1.08;63.59;98820.78;5048700;28;20044;-35
2023/03/02 02:37:43;;;;;;;3.70;1.20;;;;;;;-1.08;63.77;98827.56;5036822;28;20142;-34
2023/03/02 02:40:40;;;;;;;3.25;1.10;;;;;;;-1.05;63.75;98814.84;5068000;28;20052;-36
2023/03/02 02:43:10;;;;;;;2.88;1.08;;;;;;;-1.46;63.65;98744.34;5032629;28;20052;-35
2023/03/02 02:45:36;;;;;;;4.50;1.27;;;;;;;-1.08;63.28;98830.97;5067155;28;20041;-36
2023/03/02 02:48:02;;;;;;;3.55;1.70;;;;;;;-1.26;63.22;98802.13;5050605;28;20043;-35
2023/03/02 02:50:32;;;;;;;2.22;0.80;;;;;;;-1.12;63.29;98826.75;5068599;28;20046;-36
2023/03/02 02:53:02;;;;;;;;;;;;;;;-1.06;62.86;98836.94;5068089;28;20036;-35
2023/03/02 02:55:28;;;;;;;1.95;0.90;;;;;;;-1.23;62.85;98804.66;5100045;28;19924;-35
2023/03/02 02:57:56;;;;;;;1.95;0.85;;;;;;;-1.17;62.33;98832.69;5067611;28;20586;-34
2023/03/02 03:00:23;;;;;;;1.95;1.10;;;;;;;-1.35;62.60;98802.97;5050580;28;20040;-41
2023/03/02 03:03:29;;;;;;;3.20;1.20;;;;;;;-1.32;62.88;98816.56;5048258;28;20337;-35
2023/03/02 03:05:59;;;;;;;2.78;1.10;;;;;;;-1.11;62.33;98848.84;5057589;28;20091;-36
2023/03/02 03:08:59;;;;;;;3.50;1.23;;;;;;;-1.09;62.34;98851.38;5047958;28;20436;-36
2023/03/02 03:11:35;;;;;;;1.63;1.00;;;;;;;-1.07;62.00;98858.19;5049822;28;20689;-36
2023/03/02 03:14:04;;;;;;;2.70;1.23;;;;;;;-1.06;62.03;98859.03;5067026;28;20071;-35
2023/03/02 03:16:32;;;;;;;4.05;1.42;;;;;;;-1.18;62.06;98836.94;5050353;28;20090;-35
2023/03/02 03:19:04;;;;;;;3.03;0.68;;;;;;;-1.27;61.83;98834.41;5067925;28;20123;-36
2023/03/02 03:21:30;;;;;;;2.40;0.90;;;;;;;-1.23;61.88;98859.06;5051299;28;20041;-36
2023/03/02 03:23:56;;;;;;;3.05;1.20;;;;;;;-1.24;61.82;98853.94;5067250;28;20046;-36
2023/03/02 03:26:22;;;;;;;6.10;1.05;;;;;;;-1.38;61.64;98813.19;5067301;28;20529;-35
2023/03/02 03:28:48;;;;;;;5.28;1.27;;;;;;;-1.21;61.81;98836.97;5067374;28;20041;-35
2023/03/02 03:31:15;;;;;;;2.60;0.93;;;;;;;-1.41;62.02;98823.34;5033029;28;20474;-36
2023/03/02 03:33:41;;;;;;;6.38;1.55;;;;;;;-1.20;61.74;98837.81;5061389;28;20047;-34
2023/03/02 03:36:07;;;;;;;4.15;1.15;;;;;;;-1.22;61.80;98832.72;5045777;28;20045;-35
2023/03/02 03:38:34;;;;;;;2.35;0.90;;;;;;;-1.23;61.90;98831.00;5066644;28;20040;-34
2023/03/02 03:41:00;;;;;;;3.05;1.58;;;;;;;-1.27;61.82;98819.13;5075171;28;20508;-35
2023/03/02 03:43:26;;;;;;;5.05;1.05;;;;;;;-1.21;61.66;98828.47;5050136;28;20079;-37
2023/03/02 03:45:53;;;;;;;1.98;1.08;;;;;;;-1.26;61.65;98823.38;5049551;28;20385;-36
2023/03/02 03:48:19;;;;;;;3.85;1.00;;;;;;;-1.21;61.70;98824.22;5065795;28;20526;-35
2023/03/02 03:50:47;;;;;;;2.50;1.50;;;;;;;-1.22;61.49;98825.06;5050595;28;20100;-37
2023/03/02 03:53:13;;;;;;;3.33;1.10;;;;;;;-1.22;61.39;98824.22;5050979;28;20074;-36
2023/03/02 03:55:39;;;;;;;2.20;0.98;;;;;;;-1.22;61.30;98826.75;5076948;28;20120;-35
2023/03/02 03:58:05;;;;;;;3.45;0.70;;;;;;;-1.36;61.08;98801.28;5064024;28;20044;-35
2023/03/02 04:00:31;;;;;;;2.20;0.82;;;;;;;-1.18;61.12;98825.91;5084228;28;20093;-36
2023/03/02 04:03:04;;;;;;;3.45;1.02;;;;;;;-1.18;60.92;98829.28;5049852;28;20036;-36
2023/03/02 04:05:32;;;;;;;4.20;1.45;;;;;;;-1.44;60.94;98792.78;5066751;28;20112;-35
2023/03/02 04:08:00;;;;;;;2.30;1.15;;;;;;;-1.23;60.85;98835.25;5100550;28;20037;-35
2023/03/02 04:10:28;;;;;;;1.42;0.73;;;;;;;-1.24;60.72;98841.19;5066738;28;20060;-36
2023/03/02 04:12:55;;;;;;;3.40;1.20;;;;;;;-1.30;60.47;98830.16;5066124;28;20036;-35
2023/03/02 04:15:21;;;;;;;5.22;0.95;;;;;;;-1.33;60.60;98837.81;5065724;28;20043;-35
2023/03/02 04:17:49;;;;;;;2.72;0.63;;;;;;;-1.28;60.46;98842.91;5066214;28;20083;-35
2023/03/02 04:20:20;;;;;;;1.08;0.75;;;;;;;-1.29;60.73;98839.50;5077508;28;20039;-35
2023/03/02 04:22:50;;;;;;;3.03;1.20;;;;;;;-1.38;60.37;98843.75;5049177;28;20075;-35
2023/03/02 04:25:20;;;;;;;2.38;0.80;;;;;;;-1.38;60.67;98842.06;5064411;28;20139;-35
2023/03/02 04:27:48;;;;;;;2.05;0.80;;;;;;;-1.34;60.50;98848.00;5049482;28;20126;-36
2023/03/02 04:30:17;;;;;;;5.78;1.88;;;;;;;-1.31;60.67;98850.56;5038261;28;20064;-36
2023/03/02 04:32:43;;;;;;;2.10;1.13;;;;;;;-1.24;60.66;98854.78;5065653;28;20058;-36
2023/03/02 04:35:11;;;;;;;4.35;1.65;;;;;;;-1.26;60.47;98853.97;5065795;28;20544;-36
2023/03/02 04:37:38;;;;;;;5.05;1.10;;;;;;;-1.24;60.48;98867.53;5079955;28;20423;-34
2023/03/02 04:40:05;;;;;;;2.58;0.90;;;;;;;-1.18;60.59;98862.44;5064866;28;20091;-37
2023/03/02 04:42:30;;;;;;;2.78;1.05;;;;;;;-1.18;60.50;98874.34;5067042;28;20044;-35
2023/03/02 04:44:56;;;;;;;2.95;1.00;;;;;;;-1.16;59.96;98896.47;5067725;28;20621;-37
2023/03/02 04:47:22;;;;;;;4.38;1.25;;;;;;;-1.12;60.06;98894.75;5049337;28;20093;-35
2023/03/02 04:49:53;;;;;;;2.40;0.93;;;;;;;-1.12;60.09;98899.84;5064802;28;20036;-36
2023/03/02 04:52:23;;;;;;;1.60;0.70;;;;;;;-1.08;60.07;98899.00;5064932;28;20127;-35
2023/03/02 04:54:50;;;;;;;2.25;0.90;;;;;;;-1.12;60.12;98904.94;5054110;28;20033;-35
2023/03/02 04:57:16;;;;;;;3.05;0.98;;;;;;;-1.10;60.03;98906.63;5070765;28;20183;-37
2023/03/02 04:59:42;;;;;;;2.88;0.88;;;;;;;-1.14;59.74;98907.50;5066587;28;20579;-35
2023/03/02 05:02:08;;;;;;;2.70;0.90;;;;;;;-1.16;59.78;98909.22;5069815;28;20431;-36
2023/03/02 05:04:34;;;;;;;3.25;1.20;;;;;;;-1.13;59.86;98909.19;5063092;28;20106;-37
2023/03/02 05:07:00;;;;;;;2.22;0.82;;;;;;;-1.13;59.75;98927.06;5065094;28;20074;-36
2023/03/02 05:09:29;;;;;;;3.05;1.17;;;;;;;-1.26;59.85;98888.81;5067680;28;20032;-34
2023/03/02 05:11:56;;;;;;;3.40;1.52;;;;;;;-0.99;59.72;98933.00;5067739;28;20134;-37
2023/03/02 05:14:23;;;;;;;4.28;1.20;;;;;;;-0.94;60.05;98932.97;5066624;28;20059;-37
2023/03/02 05:16:49;;;;;;;3.22;0.90;;;;;;;-0.94;59.56;98938.09;5068292;28;20045;-37
2023/03/02 05:19:15;;;;;;;3.75;1.58;;;;;;;-0.95;59.38;98924.50;5070905;28;20170;-38
2023/03/02 05:21:42;;;;;;;1.88;0.95;;;;;;;-0.95;59.46;98916.00;5069408;28;20524;-38
2023/03/02 05:24:08;;;;;;;3.72;1.10;;;;;;;-0.94;59.06;98922.78;5065431;28;20044;-38
2023/03/02 05:26:33;;;;;;;4.57;1.13;;;;;;;-0.92;59.30;98934.69;5084702;28;20553;-38
2023/03/02 05:28:59;;;;;;;2.58;1.08;;;;;;;-0.88;59.27;98920.22;5068275;28;20068;-37
2023/03/02 05:31:33;;;;;;;3.20;1.02;;;;;;;-0.80;59.32;98920.22;5061412;28;20044;-39
2023/03/02 05:34:00;;;;;;;2.85;1.30;;;;;;;-0.82;58.90;98930.44;5056951;28;20186;-39
2023/03/02 05:36:26;;;;;;;3.05;1.08;;;;;;;-0.94;58.84;98910.88;5081653;28;20535;-37
2023/03/02 05:38:52;;;;;;;3.05;0.70;;;;;;;-0.83;58.73;98936.38;5067753;28;20063;-36
2023/03/02 05:41:18;;;;;;;1.73;0.88;;;;;;;-0.82;58.79;98935.53;5067108;28;20068;-36
2023/03/02 05:43:44;;;;;;;3.20;1.00;;;;;;;-0.80;58.89;98933.84;5069584;28;20090;-38
2023/03/02 05:46:10;;;;;;;3.78;1.17;;;;;;;-0.72;58.96;98926.16;5068549;28;20036;-36
2023/03/02 05:48:36;;;;;;;6.35;1.70;;;;;;;-0.69;58.71;98921.06;5070384;28;20086;-37
2023/03/02 05:51:02;;;;;;;2.35;1.10;;;;;;;-0.61;58.72;98919.34;5067695;28;20040;-39
2023/03/02 05:53:28;;;;;;;3.25;0.85;;;;;;;-0.59;58.63;98931.25;5066430;28;20074;-38
2023/03/02 05:55:54;;;;;;;1.58;0.70;;;;;;;-0.57;58.61;98916.78;5050891;28;20047;-36
2023/03/02 05:58:20;;;;;;;2.42;1.10;;;;;;;-0.93;58.45;98864.09;5062032;28;20037;-37
2023/03/02 06:00:47;;;;;;;2.17;1.10;;;;;;;-0.47;58.43;98912.47;5084345;28;20043;-37
2023/03/02 06:03:14;;;;;;;1.30;0.73;;;;;;;-0.72;57.93;98867.47;5068825;28;20036;-37
2023/03/02 06:05:40;;;;;;;8.48;1.55;;;;;;;-0.44;57.38;98921.00;5065921;28;20051;-36
2023/03/02 06:08:06;;;;;;;4.82;1.40;;;;;;;-0.49;57.82;98926.97;5065812;28;20032;-37
2023/03/02 06:10:33;;;;;;;3.75;1.40;;;;;;;-0.49;57.88;98940.59;5048884;28;20103;-38
2023/03/02 06:12:59;;;;;;;4.55;1.17;;;;;;;-0.40;58.16;98929.50;5023811;28;20135;-36
2023/03/02 06:15:28;;;;;;;4.63;1.45;;;;;;;-0.34;57.95;98939.69;5065422;28;20147;-37
2023/03/02 06:17:55;;;;;;;2.45;1.48;;;;;;;-0.17;57.70;98937.09;5058359;28;20124;-37
2023/03/02 06:20:22;;;;;;;1.55;1.20;;;;;;;-0.28;57.25;98901.38;5063631;28;20044;-37
2023/03/02 06:22:48;;;;;;;2.08;1.02;;;;;;;0.04;57.23;98944.69;5049979;28;20049;-41
2023/03/02 06:25:17;;;;;;;3.13;0.93;;;;;;;0.13;57.02;98942.06;5063551;28;20040;-37
2023/03/02 06:27:43;;;;;;;3.33;0.90;;;;;;;0.16;57.00;98941.22;5081992;28;20127;-38
2023/03/02 06:30:14;;;;;;;3.60;1.52;;;;;;;0.20;57.15;98951.44;5068307;28;20037;-37
2023/03/02 06:32:41;;;;;;;4.45;1.48;;;;;;;0.16;57.14;98944.59;5067138;28;20047;-37
2023/03/02 06:35:08;;;;;;;3.78;1.58;;;;;;;0.20;57.16;98940.34;5061195;28;20040;-38
2023/03/02 06:37:34;;;;;;;1.85;1.00;;;;;;;0.26;57.10;98933.47;5061457;28;20475;-38
2023/03/02 06:40:00;;;;;;;3.33;1.10;;;;;;;0.37;56.93;98926.59;5048046;28;20047;-38
2023/03/02 06:42:27;;;;;;;4.00;1.25;;;;;;;0.45;57.24;98924.00;5056010;28;20033;-38
2023/03/02 06:44:56;;;;;;;4.43;1.30;;;;;;;0.70;56.90;98928.09;5049825;28;20044;-39
2023/03/02 06:47:22;;;;;;;3.72;1.48;;;;;;;0.96;56.37;98934.72;5065405;28;20523;-37
2023/03/02 06:49:48;;;;;;;1.35;0.80;;;;;;;0.82;55.80;98920.34;5064144;28;20456;-38
2023/03/02 06:52:14;;;;;;;5.32;1.48;;;;;;;1.07;56.08;98915.00;5062028;28;20587;-39
2023/03/02 06:54:40;;;;;;;3.05;1.17;;;;;;;1.55;54.92;98911.13;5068985;28;20063;-37
2023/03/02 06:57:06;;;;;;;2.63;1.15;;;;;;;2.17;54.24;98912.09;5067242;28;20040;-37
2023/03/02 06:59:33;;;;;;;3.13;1.20;;;;;;;3.31;52.63;98913.75;5071758;28;20341;-37
2023/03/02 07:01:59;;;;;;;4.05;1.20;;;;;;;3.70;51.23;98918.19;5086423;28;20052;-38
2023/03/02 07:04:27;;;;;;;7.20;1.58;;;;;;;3.40;51.43;98916.19;5067851;28;20037;-39
2023/03/02 07:06:53;;;;;;;4.88;1.35;;;;;;;2.96;51.70;98914.34;5068104;28;20470;-37
2023/03/02 07:09:19;;;;;;;6.05;1.60;;;;;;;2.53;51.92;98891.91;5051127;28;20507;-38
2023/03/02 07:11:45;;;;;;;3.10;1.80;;;;;;;2.39;51.82;98868.19;5067722;28;20044;-36
2023/03/02 07:14:11;;;;;;;4.13;1.20;;;;;;;2.53;51.93;98888.50;5068399;28;20512;-39
2023/03/02 07:16:37;;;;;;;2.30;1.20;;;;;;;2.77;51.60;98910.41;5050497;28;20129;-38
2023/03/02 07:19:03;;;;;;;3.70;1.10;;;;;;;2.83;51.05;98895.72;5068758;28;20134;-37
2023/03/02 07:21:29;;;;;;;4.65;1.95;;;;;;;2.82;50.52;98912.03;5068648;28;20087;-38
2023/03/02 07:23:55;;;;;;;3.17;1.30;;;;;;;2.70;50.85;98904.50;5068108;28;20051;-38
2023/03/02 07:26:21;;;;;;;3.47;1.42;;;;;;;2.51;50.66;98883.38;5067682;28;20048;-37
2023/03/02 07:28:47;;;;;;;4.88;1.20;;;;;;;2.45;50.74;98918.56;5055636;28;20040;-36
2023/03/02 07:31:13;;;;;;;2.50;1.05;;;;;;;1.90;50.52;98888.50;5049393;28;20048;-38
2023/03/02 07:33:39;;;;;;;2.63;1.30;;;;;;;1.44;51.08;98885.63;5065730;28;20059;-36
2023/03/02 07:36:07;;;;;;;2.35;1.10;;;;;;;1.63;51.40;98912.75;5081886;28;20040;-36
2023/03/02 07:38:33;;;;;;;3.30;1.20;;;;;;;1.58;51.54;98911.94;5068256;28;20048;-39
2023/03/02 07:40:59;;;;;;;3.85;1.50;;;;;;;1.47;51.69;98912.91;5066831;28;20499;-37
2023/03/02 07:43:27;;;;;;;4.40;1.30;;;;;;;1.20;51.70;98911.50;5066495;28;20038;-37
2023/03/02 07:45:53;;;;;;;4.72;1.30;;;;;;;1.19;51.60;98920.03;5083097;28;20500;-37
2023/03/02 07:48:21;;;;;;;2.20;1.38;;;;;;;0.91;51.84;98898.09;5066720;28;20036;-37
2023/03/02 07:50:48;;;;;;;3.65;1.45;;;;;;;0.89;52.13;98903.22;5068445;28;20553;-38
2023/03/02 07:53:13;;;;;;;3.13;0.90;;;;;;;0.82;52.42;98889.66;5050498;28;20127;-37
2023/03/02 07:55:40;;;;;;;2.25;1.23;;;;;;;0.77;52.00;98908.44;5066268;28;20502;-37
2023/03/02 07:58:06;;;;;;;1.65;0.75;;;;;;;0.80;52.26;98905.84;5067659;28;20036;-37
2023/03/02 08:00:35;;;;;;;4.05;1.20;;;;;;;1.04;52.17;98915.06;5065177;28;20098;-38
2023/03/02 08:03:01;;;;;;;3.33;1.10;;;;;;;1.18;51.69;98879.94;5048558;28;20489;-37
2023/03/02 08:05:27;;;;;;;1.77;1.05;;;;;;;1.59;51.42;98910.22;5065276;28;20127;-37
2023/03/02 08:07:53;;;;;;;2.22;0.77;;;;;;;1.63;50.25;98906.75;5067811;28;20109;-37
2023/03/02 08:10:18;;;;;;;2.20;1.10;;;;;;;1.20;50.07;98871.38;5066603;28;20053;-37
2023/03/02 08:12:44;;;;;;;1.95;0.90;;;;;;;1.28;49.77;98892.63;5067013;28;20033;-37
2023/03/02 08:15:10;;;;;;;1.45;0.80;;;;;;;1.61;49.46;98872.66;5067164;28;20531;-37
2023/03/02 08:17:36;;;;;;;2.65;1.05;;;;;;;1.95;48.94;98881.63;5065049;28;20135;-37
2023/03/02 08:20:03;;;;;;;7.20;1.25;;;;;;;1.94;48.86;98887.59;5049889;28;20106;-38
2023/03/02 08:22:29;;;;;;;2.75;1.40;;;;;;;2.00;48.67;98874.72;5066434;28;20086;-38
2023/03/02 08:24:55;;;;;;;6.60;2.30;;;;;;;1.79;48.56;98877.53;5067805;28;20500;-36
2023/03/02 08:27:21;;;;;;;4.18;1.80;;;;;;;1.85;48.81;98874.06;5065685;28;20031;-37
2023/03/02 08:29:47;;;;;;;2.20;1.02;;;;;;;2.77;47.66;98877.03;5064572;28;20525;-38
2023/03/02 08:32:13;;;;;;;3.72;0.90;;;;;;;2.74;47.40;98866.78;5068071;28;20401;-38
2023/03/02 08:34:39;;;;;;;2.03;1.08;;;;;;;2.66;47.22;98884.03;5066430;28;20488;-39
2023/03/02 08:37:04;;;;;;;3.25;1.52;;;;;;;2.68;47.49;98895.13;5067390;28;20040;-39
2023/03/02 08:39:31;;;;;;;1.80;1.10;;;;;;;2.44;47.50;98904.88;5066830;28;20048;-37
2023/03/02 08:41:57;;;;;;;1.48;0.80;;;;;;;1.67;47.75;98882.84;5066499;28;20040;-37
2023/03/02 08:44:23;;;;;;;2.20;0.57;;;;;;;1.59;48.86;98890.59;5066058;28;20066;-37
2023/03/02 08:46:50;;;;;;;3.83;1.20;;;;;;;1.66;48.56;98884.53;5048259;28;20040;-37
2023/03/02 08:49:17;;;;;;;2.17;0.85;;;;;;;1.60;48.48;98878.63;5067034;28;20052;-37
2023/03/02 08:51:43;;;;;;;3.70;1.05;;;;;;;1.39;48.91;98887.41;5066279;28;20124;-38
2023/03/02 08:54:09;;;;;;;3.45;1.20;;;;;;;1.57;48.94;98886.38;5066266;28;20138;-37
2023/03/02 08:56:37;;;;;;;3.10;1.10;;;;;;;1.55;48.91;98890.66;5066309;28;20036;-38
2023/03/02 08:59:05;;;;;;;2.50;0.98;;;;;;;1.46;48.61;98885.63;5066629;28;20131;-37
2023/03/02 09:01:33;;;;;;;4.00;1.27;;;;;;;1.34;48.56;98888.31;5067704;28;20171;-37
2023/03/02 09:04:00;;;;;;;1.77;1.05;;;;;;;1.45;48.64;98884.78;5066333;28;20618;-38
2023/03/02 09:06:28;;;;;;;2.95;0.90;;;;;;;1.51;48.83;98887.28;5066584;28;20555;-38
2023/03/02 09:08:54;;;;;;;6.25;0.80;;;;;;;1.42;48.42;98889.91;5066033;28;20428;-38
2023/03/02 09:11:21;;;;;;;6.55;2.60;;;;;;;1.02;48.97;98892.03;5066334;28;20057;-37
2023/03/02 09:13:47;;;;;;;1.45;0.70;;;;;;;0.89;48.80;98887.88;5067453;28;20179;-37
2023/03/02 09:16:13;;;;;;;2.05;1.25;;;;;;;0.71;49.48;98890.59;5066880;28;20082;-38
2023/03/02 09:18:39;;;;;;;3.55;1.30;;;;;;;0.74;48.75;98881.16;5067634;28;20040;-37
2023/03/02 09:21:05;;;;;;;2.13;1.00;;;;;;;0.96;48.95;98881.00;5082360;28;20102;-36
2023/03/02 09:23:32;;;;;;;2.40;1.20;;;;;;;1.14;48.40;98886.81;5065000;28;20045;-37
2023/03/02 09:25:58;;;;;;;4.95;1.13;;;;;;;1.08;48.78;98876.63;5067107;28;20044;-38
2023/03/02 09:28:24;;;;;;;1.98;0.93;;;;;;;1.46;48.27;98876.25;5066040;28;20040;-37
2023/03/02 09:30:54;;;;;;;1.48;0.70;;;;;;;1.35;47.97;98872.09;5066747;28;20458;-37
2023/03/02 09:33:20;;;;;;;2.50;1.10;;;;;;;1.31;48.11;98824.34;5067016;28;20048;-38
2023/03/02 09:35:46;;;;;;;1.55;0.70;;;;;;;2.07;47.34;98848.13;5082358;28;20093;-38
2023/03/02 09:38:17;;;;;;;1.27;0.80;;;;;;;2.45;47.08;98849.31;5067300;28;20047;-38
2023/03/02 09:40:49;;;;;;;4.93;0.80;;;;;;;2.79;46.02;98841.91;5066772;28;20131;-37
2023/03/02 09:43:17;;;;;;;1.65;1.00;;;;;;;2.45;46.07;98841.59;5070719;28;20056;-37
2023/03/02 09:46:03;;;;;;;2.95;1.23;;;;;;;2.55;46.09;98851.72;5035252;28;20098;-39
2023/03/02 09:48:47;;;;;;;4.22;1.00;;;;;;;2.32;45.99;98850.34;5069456;28;20079;-38
2023/03/02 09:51:32;;;;;;;1.77;1.13;;;;;;;2.70;45.91;98822.38;5051672;28;20079;-36
2023/03/02 09:54:03;;;;;;;1.42;0.80;;;;;;;3.14;45.42;98842.13;5069492;28;20080;-38
2023/03/02 09:56:30;;;;;;;2.08;1.00;;;;;;;3.24;45.29;98806.88;5070703;28;20036;-37
2023/03/02 09:59:07;;;;;;;2.80;1.30;;;;;;;2.73;44.98;98811.19;5085843;28;20052;-38
2023/03/02 10:01:41;;;;;;;3.45;1.05;;;;;;;2.35;45.16;98822.09;5068857;28;20468;-37
2023/03/02 10:04:20;;;;;;;3.22;1.20;;;;;;;2.77;44.91;98816.28;5068650;28;20512;-37
2023/03/02 10:06:47;;;;;;;4.28;1.38;;;;;;;2.83;44.64;98820.44;5069266;28;20518;-37
2023/03/02 10:09:13;;;;;;;4.68;1.65;;;;;;;3.32;44.55;98805.00;5069146;28;20040;-37
2023/03/02 10:11:48;;;;;;;2.90;1.10;;;;;;;3.76;43.74;98816.97;5068230;28;20056;-39
2023/03/02 10:14:29;;;;;;;3.25;1.75;;;;;;;3.33;43.71;98802.41;5070175;28;20044;-37
2023/03/02 10:17:20;;;;;;;1.13;0.82;;;;;;;3.37;44.08;98813.47;5051742;28;20041;-37
2023/03/02 10:19:53;;;;;;;4.63;1.55;;;;;;;4.41;43.13;98788.91;5068692;28;20051;-37
2023/03/02 10:22:27;;;;;;;3.95;1.98;;;;;;;6.08;41.18;98798.09;5051631;28;20040;-37
2023/03/02 10:25:21;;;;;;;1.98;0.90;;;;;;;6.45;40.07;98795.19;5070043;28;20511;-38
2023/03/02 10:27:51;;;;;;;2.38;1.45;;;;;;;6.22;39.73;98758.97;5068530;28;20534;-39
2023/03/02 10:30:34;;;;;;;3.45;1.60;;;;;;;5.32;40.38;98760.78;5069081;28;20124;-37
2023/03/02 10:33:02;;;;;;;4.32;1.35;;;;;;;4.98;40.40;98789.16;5051065;28;20544;-36
2023/03/02 10:35:30;;;;;;;3.10;1.70;;;;;;;4.38;41.33;98784.69;5084991;28;20436;-36
2023/03/02 10:38:01;;;;;;;0.52;0.50;;;;;;;3.26;41.90;98780.28;5068256;28;20072;-38
2023/03/02 10:40:38;;;;;;;3.55;1.15;;;;;;;2.76;42.97;98772.69;5069217;28;20049;-36
2023/03/02 10:43:06;;;;;;;2.13;1.13;;;;;;;2.97;43.10;98768.00;5068605;28;20123;-36
2023/03/02 10:45:33;;;;;;;1.88;1.02;;;;;;;2.59;43.34;98743.88;5067738;28;20042;-37
2023/03/02 10:48:10;;;;;;;2.75;1.00;;;;;;;2.57;43.72;98767.00;5051750;28;20122;-38
2023/03/02 10:50:36;;;;;;;2.72;1.30;;;;;;;2.27;44.16;98734.16;5067812;28;20380;-37
2023/03/02 10:53:07;;;;;;;2.40;1.38;;;;;;;2.09;44.38;98725.91;5051232;28;20119;-37
2023/03/02 10:55:33;;;;;;;3.17;1.20;;;;;;;2.28;44.52;98744.41;5069807;28;20040;-38
2023/03/02 10:58:17;;;;;;;2.10;1.25;;;;;;;2.29;44.86;98756.38;5068831;28;20040;-36
2023/03/02 11:00:55;;;;;;;4.13;1.17;;;;;;;2.17;45.57;98740.31;5051130;28;20095;-37
2023/03/02 11:03:22;;;;;;;4.53;1.60;;;;;;;2.40;45.12;98743.38;5068083;28;20127;-38
2023/03/02 11:05:48;;;;;;;2.88;1.27;;;;;;;2.34;44.92;98725.50;5068011;28;20516;-37
2023/03/02 11:08:20;;;;;;;4.32;1.40;;;;;;;2.20;45.00;98733.41;5068959;28;20187;-37
2023/03/02 11:10:57;;;;;;;5.00;1.75;;;;;;;2.40;45.22;98713.44;5084031;28;20591;-37
2023/03/02 11:13:27;;;;;;;2.15;1.30;;;;;;;2.59;44.97;98702.84;5069319;28;20039;-37
2023/03/02 11:15:58;;;;;;;3.35;1.48;;;;;;;2.84;44.54;98698.94;5068629;28;20036;-37
2023/03/02 11:18:37;;;;;;;2.60;1.20;;;;;;;3.02;44.52;98697.75;5084841;28;20127;-35
2023/03/02 11:21:07;;;;;;;1.17;0.80;;;;;;;2.49;44.83;98671.38;5068144;28;20123;-37
2023/03/02 11:23:51;;;;;;;;;;;;;;;2.40;45.22;98694.63;5068070;28;20505;-37
2023/03/02 11:26:24;;;;;;;2.13;0.63;;;;;;;2.09;45.62;98689.19;5068993;28;20736;-35
2023/03/02 11:29:03;;;;;;;1.48;1.17;;;;;;;2.20;46.00;98694.13;5067316;28;20053;-37
2023/03/02 11:31:52;;;;;;;4.03;1.10;;;;;;;2.30;45.79;98683.69;5068070;28;20119;-37
2023/03/02 11:34:35;;;;;;;4.75;1.02;;;;;;;2.47;45.50;98681.66;5067238;28;20140;-37
2023/03/02 11:37:04;;;;;;;2.33;1.02;;;;;;;2.23;45.56;98656.47;5066803;28;20049;-37
2023/03/02 11:40:12;;;;;;;2.78;1.48;;;;;;;1.94;46.23;98681.72;5066657;28;20051;-36
2023/03/02 11:42:40;;;;;;;4.32;1.40;;;;;;;1.67;46.76;98683.84;5046674;28;20569;-42
2023/03/02 11:45:12;;;;;;;3.88;1.60;;;;;;;2.01;46.11;98679.03;5066771;28;20507;-37
2023/03/02 11:47:38;;;;;;;3.75;1.27;;;;;;;1.74;46.70;98646.16;5067979;28;20048;-37